Time;durP1;ratioP1;P1;durP2;ratioP2;P2;SDS_P1;SDS_P2;PMS_P1;PMS_P2;Temp;Humidity;BMP_temperature;BMP_pressure;BME280_temperature;BME280_humidity;BME280_pressure;Samples;Min_cycle;Max_cycle;Signal;HPM_P1;HPM_P2
2022/12/03 00:00:28;;;;;;;;;39.25;31.50;;;;;;;;5010522;28;45732;-70
2022/12/03 00:02:53;;;;;;;;;52.00;37.75;;;;;;;;5011045;28;45383;-72
2022/12/03 00:05:19;;;;;;;;;42.00;29.00;;;;;;;;4993443;28;45725;-70
2022/12/03 00:07:44;;;;;;;;;51.50;39.00;;;;;;;;4992736;28;46086;-71
2022/12/03 00:10:09;;;;;;;;;50.00;34.50;;;;;;;;5012670;28;45381;-73
2022/12/03 00:12:35;;;;;;;;;33.00;25.75;;;;;;;;5012912;28;45717;-72
2022/12/03 00:15:00;;;;;;;;;57.00;41.75;;;;;;;;5023272;28;45823;-72
2022/12/03 00:17:25;;;;;;;;;51.75;40.00;;;;;;;;4995737;28;46074;-72
2022/12/03 00:19:50;;;;;;;;;56.25;40.75;;;;;;;;5003954;28;45600;-72
2022/12/03 00:22:16;;;;;;;;;46.00;35.00;;;;;;;;5013161;28;45305;-70
2022/12/03 00:24:41;;;;;;;;;51.00;36.75;;;;;;;;5013697;28;45311;-70
2022/12/03 00:27:06;;;;;;;;;47.00;40.50;;;;;;;;4995537;28;45737;-70
2022/12/03 00:29:32;;;;;;;;;56.25;41.00;;;;;;;;5013374;28;45626;-69
2022/12/03 00:31:57;;;;;;;;;46.00;37.75;;;;;;;;5013286;28;45538;-71
2022/12/03 00:34:22;;;;;;;;;37.00;31.00;;;;;;;;5009473;28;45577;-69
2022/12/03 00:36:47;;;;;;;;;57.75;40.75;;;;;;;;5012710;28;45808;-71
2022/12/03 00:39:13;;;;;;;;;49.00;40.00;;;;;;;;5013737;28;45725;-70
2022/12/03 00:41:38;;;;;;;;;57.00;44.00;;;;;;;;5012703;28;45491;-71
2022/12/03 00:44:03;;;;;;;;;48.75;38.50;;;;;;;;5013761;28;45666;-71
2022/12/03 00:46:28;;;;;;;;;61.50;44.25;;;;;;;;5015362;28;45891;-71
2022/12/03 00:48:54;;;;;;;;;46.25;36.50;;;;;;;;5013944;28;46276;-70
2022/12/03 00:51:19;;;;;;;;;49.25;38.25;;;;;;;;4996080;28;45347;-75
2022/12/03 00:53:44;;;;;;;;;48.25;36.75;;;;;;;;5012819;28;45624;-70
2022/12/03 00:56:09;;;;;;;;;56.00;40.25;;;;;;;;5013413;28;45756;-70
2022/12/03 00:58:35;;;;;;;;;48.50;34.75;;;;;;;;5013570;28;45694;-69
2022/12/03 01:01:00;;;;;;;;;37.75;30.25;;;;;;;;5004659;28;45728;-72
2022/12/03 01:03:25;;;;;;;;;55.25;41.00;;;;;;;;5018661;28;45738;-71
2022/12/03 01:05:51;;;;;;;;;63.00;41.00;;;;;;;;5013369;28;46329;-70
2022/12/03 01:08:16;;;;;;;;;56.00;41.00;;;;;;;;5011781;28;46335;-71
2022/12/03 01:10:41;;;;;;;;;59.25;44.50;;;;;;;;5013198;28;45789;-69
2022/12/03 01:13:06;;;;;;;;;57.00;42.25;;;;;;;;5011870;28;45683;-71
2022/12/03 01:15:32;;;;;;;;;51.25;39.50;;;;;;;;5013233;28;45343;-70
2022/12/03 01:17:57;;;;;;;;;57.50;41.25;;;;;;;;5012529;28;46701;-70
2022/12/03 01:20:22;;;;;;;;;55.00;42.50;;;;;;;;5006382;28;45719;-72
2022/12/03 01:22:47;;;;;;;;;51.00;35.50;;;;;;;;5011126;28;45429;-71
2022/12/03 01:25:13;;;;;;;;;57.00;43.00;;;;;;;;5016414;28;45509;-71
2022/12/03 01:27:38;;;;;;;;;55.75;40.25;;;;;;;;4995227;28;48207;-71
2022/12/03 01:30:04;;;;;;;;;41.25;31.00;;;;;;;;5012397;28;45386;-71
2022/12/03 01:32:29;;;;;;;;;52.00;37.25;;;;;;;;4994153;28;45747;-71
2022/12/03 01:34:54;;;;;;;;;54.75;40.00;;;;;;;;5012034;28;45603;-70
2022/12/03 01:37:21;;;;;;;;;58.50;45.00;;;;;;;;4999651;28;46093;-70
2022/12/03 01:39:47;;;;;;;;;53.00;35.75;;;;;;;;4992437;28;46031;-72
2022/12/03 01:42:17;;;;;;;;;50.25;38.25;;;;;;;;5012618;28;45753;-72
2022/12/03 01:44:43;;;;;;;;;31.25;16.50;;;;;;;;5013234;28;45818;-72
2022/12/03 01:47:16;;;;;;;;;54.50;41.25;;;;;;;;5013502;28;45757;-73
2022/12/03 01:49:41;;;;;;;;;54.50;40.00;;;;;;;;5013040;28;45377;-70
2022/12/03 01:52:10;;;;;;;;;54.50;39.50;;;;;;;;5001257;28;45437;-70
2022/12/03 01:54:37;;;;;;;;;45.75;38.50;;;;;;;;4988730;28;46906;-70
2022/12/03 01:57:03;;;;;;;;;37.25;30.25;;;;;;;;5012785;28;45697;-71
2022/12/03 01:59:37;;;;;;;;;55.75;41.00;;;;;;;;5012129;28;46455;-70
2022/12/03 02:02:16;;;;;;;;;54.25;42.00;;;;;;;;5000767;28;45424;-70
2022/12/03 02:04:41;;;;;;;;;46.75;37.00;;;;;;;;5012417;28;45818;-72
2022/12/03 02:07:16;;;;;;;;;58.25;40.75;;;;;;;;5009196;28;45394;-71
2022/12/03 02:09:42;;;;;;;;;56.25;39.25;;;;;;;;5007501;28;45472;-72
2022/12/03 02:12:07;;;;;;;;;53.25;39.50;;;;;;;;5021416;28;45358;-69
2022/12/03 02:14:33;;;;;;;;;50.00;35.75;;;;;;;;5025870;28;45698;-70
2022/12/03 02:16:59;;;;;;;;;54.75;41.50;;;;;;;;5012307;28;45787;-71
2022/12/03 02:19:26;;;;;;;;;51.00;39.75;;;;;;;;5012549;28;45807;-72
2022/12/03 02:22:04;;;;;;;;;54.50;36.75;;;;;;;;5003073;28;45383;-72
2022/12/03 02:24:35;;;;;;;;;60.50;46.00;;;;;;;;5011991;28;45652;-71
2022/12/03 02:27:00;;;;;;;;;54.25;39.00;;;;;;;;4994428;28;47094;-72
2022/12/03 02:29:26;;;;;;;;;55.50;44.00;;;;;;;;4993190;28;45735;-71
2022/12/03 02:31:51;;;;;;;;;61.75;42.50;;;;;;;;4991107;28;45355;-69
2022/12/03 02:34:32;;;;;;;;;55.50;39.75;;;;;;;;5003481;28;45933;-70
2022/12/03 02:36:58;;;;;;;;;54.75;40.00;;;;;;;;5010783;28;45763;-70
2022/12/03 02:39:23;;;;;;;;;60.25;42.00;;;;;;;;5011452;28;45511;-71
2022/12/03 02:44:32;;;;;;;;;60.50;42.00;;;;;;;;5012071;28;45382;-71
2022/12/03 02:46:59;;;;;;;;;50.00;37.50;;;;;;;;5011744;28;45366;-71
2022/12/03 02:49:24;;;;;;;;;59.25;43.25;;;;;;;;4992336;28;45730;-70
2022/12/03 02:51:49;;;;;;;;;52.00;40.00;;;;;;;;5010216;28;45478;-71
2022/12/03 02:54:15;;;;;;;;;50.75;37.25;;;;;;;;5010140;28;45489;-71
2022/12/03 02:56:40;;;;;;;;;31.25;26.25;;;;;;;;5010196;28;45876;-70
2022/12/03 02:59:05;;;;;;;;;47.50;36.50;;;;;;;;5011069;28;45513;-72
2022/12/03 03:01:31;;;;;;;;;50.50;37.50;;;;;;;;5010864;28;45839;-71
2022/12/03 03:03:57;;;;;;;;;42.25;34.75;;;;;;;;5011885;28;45559;-71
2022/12/03 03:06:22;;;;;;;;;56.00;43.75;;;;;;;;5014070;28;45989;-70
2022/12/03 03:08:48;;;;;;;;;55.00;35.00;;;;;;;;5011980;28;45388;-71
2022/12/03 03:11:13;;;;;;;;;52.25;38.25;;;;;;;;5011698;28;45689;-69
2022/12/03 03:13:39;;;;;;;;;35.75;31.00;;;;;;;;5012153;28;45804;-70
2022/12/03 03:16:05;;;;;;;;;48.50;38.75;;;;;;;;5007425;28;45477;-70
2022/12/03 03:18:31;;;;;;;;;48.25;38.50;;;;;;;;5011839;28;45670;-69
2022/12/03 03:20:56;;;;;;;;;46.75;35.50;;;;;;;;5006833;28;45533;-71
2022/12/03 03:23:22;;;;;;;;;54.25;39.00;;;;;;;;5007432;28;45409;-69
2022/12/03 03:26:15;;;;;;;;;46.25;38.25;;;;;;;;5008767;28;46399;-70
2022/12/03 03:28:43;;;;;;;;;55.25;39.50;;;;;;;;4989561;28;45704;-71
2022/12/03 03:31:10;;;;;;;;;59.25;42.00;;;;;;;;5010182;28;46434;-70
2022/12/03 03:33:36;;;;;;;;;45.50;36.50;;;;;;;;5021279;28;45392;-70
2022/12/03 03:36:02;;;;;;;;;49.50;36.75;;;;;;;;5024311;28;46460;-70
2022/12/03 03:38:28;;;;;;;;;43.50;35.50;;;;;;;;5011356;28;45355;-70
2022/12/03 03:40:55;;;;;;;;;50.75;37.25;;;;;;;;5018415;28;45319;-71
2022/12/03 03:43:21;;;;;;;;;57.50;38.00;;;;;;;;5008902;28;45709;-70
2022/12/03 03:45:47;;;;;;;;;51.25;38.25;;;;;;;;5012066;28;47024;-69
2022/12/03 03:48:12;;;;;;;;;55.00;37.00;;;;;;;;5016705;28;45449;-71
2022/12/03 03:50:38;;;;;;;;;52.50;40.25;;;;;;;;4998973;28;45930;-70
2022/12/03 03:53:04;;;;;;;;;37.75;32.25;;;;;;;;5014491;28;45769;-71
2022/12/03 03:55:30;;;;;;;;;53.00;37.75;;;;;;;;5018259;28;46470;-70
2022/12/03 03:57:55;;;;;;;;;44.75;33.00;;;;;;;;5014080;28;45370;-69
2022/12/03 04:00:21;;;;;;;;;49.75;37.00;;;;;;;;4995058;28;45954;-70
2022/12/03 04:02:46;;;;;;;;;47.25;37.25;;;;;;;;5010344;28;45786;-71
2022/12/03 04:05:19;;;;;;;;;53.50;39.50;;;;;;;;5014618;28;45930;-70
2022/12/03 04:07:45;;;;;;;;;49.00;37.00;;;;;;;;5010214;28;45881;-70
2022/12/03 04:12:54;;;;;;;;;46.75;35.00;;;;;;;;5014255;28;45781;-70
2022/12/03 04:15:20;;;;;;;;;47.00;34.75;;;;;;;;4995404;28;48365;-70
2022/12/03 04:18:41;;;;;;;;;34.00;25.00;;;;;;;;5014222;28;45817;-70
2022/12/03 04:20:31;;;;;;;;;52.00;38.50;;;;;;;;5013198;28;45672;-70
2022/12/03 04:22:56;;;;;;;;;42.00;35.50;;;;;;;;4996027;28;47048;-70
2022/12/03 04:30:49;;;;;;;;;47.75;38.50;;;;;;;;5004209;28;46533;-69
2022/12/03 04:35:58;;;;;;;;;52.25;38.50;;;;;;;;5009114;28;45782;-71
2022/12/03 04:38:23;;;;;;;;;45.25;34.50;;;;;;;;5015028;28;45738;-67
2022/12/03 04:41:02;;;;;;;;;40.25;29.50;;;;;;;;5013917;28;45710;-69
2022/12/03 04:43:31;;;;;;;;;50.00;38.75;;;;;;;;5013336;28;45420;-70
2022/12/03 04:45:57;;;;;;;;;46.00;36.50;;;;;;;;5013026;28;45667;-69
2022/12/03 04:48:23;;;;;;;;;49.75;37.75;;;;;;;;5015480;28;45681;-69
2022/12/03 04:50:48;;;;;;;;;40.75;32.25;;;;;;;;5013579;28;45434;-70
2022/12/03 04:53:14;;;;;;;;;45.50;37.50;;;;;;;;4998889;28;47162;-69
2022/12/03 04:55:39;;;;;;;;;46.75;35.50;;;;;;;;5012886;28;46394;-69
2022/12/03 04:58:04;;;;;;;;;48.00;37.25;;;;;;;;5013130;28;45824;-68
2022/12/03 05:00:29;;;;;;;;;49.25;35.00;;;;;;;;5012493;28;45457;-68
2022/12/03 05:02:54;;;;;;;;;47.25;32.75;;;;;;;;5012756;28;45475;-69
2022/12/03 05:05:20;;;;;;;;;41.00;30.25;;;;;;;;4995224;28;46702;-68
2022/12/03 05:07:45;;;;;;;;;52.75;37.50;;;;;;;;4995125;28;45310;-71
2022/12/03 05:10:11;;;;;;;;;45.50;35.75;;;;;;;;5013447;28;45442;-70
2022/12/03 05:12:36;;;;;;;;;35.50;29.00;;;;;;;;5013011;28;45753;-69
2022/12/03 05:15:01;;;;;;;;;49.25;37.25;;;;;;;;5013422;28;45480;-69
2022/12/03 05:17:26;;;;;;;;;41.75;36.50;;;;;;;;5013243;28;45605;-70
2022/12/03 05:22:35;;;;;;;;;54.75;41.00;;;;;;;;5012290;28;45716;-69
2022/12/03 05:25:01;;;;;;;;;43.00;35.25;;;;;;;;4994587;28;47405;-70
2022/12/03 05:27:26;;;;;;;;;35.50;25.75;;;;;;;;5009841;28;45413;-70
2022/12/03 05:29:51;;;;;;;;;40.00;31.00;;;;;;;;4998700;28;45284;-73
2022/12/03 05:32:17;;;;;;;;;38.75;31.25;;;;;;;;5013438;28;45351;-69
2022/12/03 05:34:42;;;;;;;;;40.75;33.50;;;;;;;;5013393;28;46162;-70
2022/12/03 05:37:07;;;;;;;;;42.00;30.00;;;;;;;;5016777;28;45387;-70
2022/12/03 05:39:32;;;;;;;;;47.00;35.00;;;;;;;;5032945;28;45267;-69
2022/12/03 05:44:41;;;;;;;;;60.25;46.25;;;;;;;;5014629;28;45796;-71
2022/12/03 05:47:07;;;;;;;;;40.00;32.00;;;;;;;;5019425;28;45412;-70
2022/12/03 05:49:32;;;;;;;;;43.00;31.75;;;;;;;;5012354;28;44758;-70
2022/12/03 05:51:57;;;;;;;;;39.50;29.50;;;;;;;;5022233;28;45295;-71
2022/12/03 05:54:23;;;;;;;;;47.75;36.00;;;;;;;;5025652;28;45481;-68
2022/12/03 05:56:48;;;;;;;;;36.75;30.25;;;;;;;;5017762;28;45631;-71
2022/12/03 05:59:13;;;;;;;;;50.00;36.25;;;;;;;;5018524;28;45473;-70
2022/12/03 06:01:38;;;;;;;;;40.75;31.75;;;;;;;;4995176;28;47295;-69
2022/12/03 06:04:04;;;;;;;;;37.50;30.75;;;;;;;;5005352;28;48389;-71
2022/12/03 06:06:29;;;;;;;;;46.50;31.00;;;;;;;;5022185;28;45309;-67
2022/12/03 06:08:54;;;;;;;;;41.75;30.25;;;;;;;;5018975;28;45547;-67
2022/12/03 06:11:19;;;;;;;;;47.00;34.75;;;;;;;;5012666;28;45505;-70
2022/12/03 06:13:45;;;;;;;;;37.25;33.25;;;;;;;;4994682;28;47909;-70
2022/12/03 06:16:10;;;;;;;;;40.25;33.50;;;;;;;;5000900;28;45331;-70
2022/12/03 06:18:35;;;;;;;;;35.50;27.25;;;;;;;;5025312;28;45314;-70
2022/12/03 06:21:00;;;;;;;;;38.75;30.25;;;;;;;;5009934;28;45351;-70
2022/12/03 06:23:26;;;;;;;;;36.50;32.00;;;;;;;;5012635;28;45605;-69
2022/12/03 06:25:51;;;;;;;;;41.00;32.25;;;;;;;;5015969;28;45369;-69
2022/12/03 06:28:16;;;;;;;;;37.75;32.75;;;;;;;;4995345;28;46173;-70
2022/12/03 06:30:41;;;;;;;;;47.50;36.75;;;;;;;;5010456;28;46459;-70
2022/12/03 06:33:07;;;;;;;;;42.00;35.75;;;;;;;;5011600;28;45695;-70
2022/12/03 06:35:32;;;;;;;;;36.00;33.25;;;;;;;;5012794;28;45597;-68
2022/12/03 06:37:57;;;;;;;;;44.75;34.75;;;;;;;;5014802;28;45506;-69
2022/12/03 06:40:23;;;;;;;;;34.25;28.50;;;;;;;;5023899;28;45509;-69
2022/12/03 06:42:49;;;;;;;;;46.25;34.00;;;;;;;;5012876;28;45473;-70
2022/12/03 06:45:14;;;;;;;;;37.25;33.25;;;;;;;;4994217;28;45388;-69
2022/12/03 06:47:39;;;;;;;;;35.25;30.50;;;;;;;;4995744;28;45885;-68
2022/12/03 06:50:06;;;;;;;;;36.00;31.50;;;;;;;;5017978;28;45558;-69
2022/12/03 06:52:31;;;;;;;;;46.00;33.50;;;;;;;;5015086;28;46503;-72
2022/12/03 06:54:56;;;;;;;;;41.50;31.75;;;;;;;;5005420;28;45467;-71
2022/12/03 06:57:22;;;;;;;;;34.75;30.50;;;;;;;;4992066;28;45778;-70
2022/12/03 06:59:47;;;;;;;;;47.00;34.50;;;;;;;;5014666;28;46692;-72
2022/12/03 07:02:12;;;;;;;;;35.00;27.25;;;;;;;;5012173;28;45906;-72
2022/12/03 07:04:38;;;;;;;;;38.00;31.25;;;;;;;;5012437;28;45872;-72
2022/12/03 07:07:03;;;;;;;;;39.25;32.00;;;;;;;;5008340;28;45677;-71
2022/12/03 07:09:28;;;;;;;;;46.75;35.25;;;;;;;;5006473;28;45664;-68
2022/12/03 07:11:54;;;;;;;;;30.75;27.50;;;;;;;;5002533;28;45919;-70
2022/12/03 07:14:19;;;;;;;;;36.50;30.25;;;;;;;;5007671;28;45486;-70
2022/12/03 07:16:44;;;;;;;;;41.25;29.00;;;;;;;;4983238;28;45891;-69
2022/12/03 07:19:10;;;;;;;;;33.25;30.75;;;;;;;;5013840;28;45678;-74
2022/12/03 07:21:35;;;;;;;;;31.75;29.25;;;;;;;;5007493;28;46110;-70
2022/12/03 07:24:01;;;;;;;;;52.50;36.00;;;;;;;;5009846;28;45441;-70
2022/12/03 07:26:26;;;;;;;;;37.75;30.00;;;;;;;;5010172;28;46294;-68
2022/12/03 07:28:51;;;;;;;;;37.25;28.75;;;;;;;;5012986;28;45828;-68
2022/12/03 07:31:16;;;;;;;;;31.75;25.00;;;;;;;;4994797;28;47479;-69
2022/12/03 07:33:42;;;;;;;;;47.25;35.00;;;;;;;;5014649;28;45846;-69
2022/12/03 07:36:07;;;;;;;;;36.75;30.00;;;;;;;;4995123;28;46044;-70
2022/12/03 07:38:32;;;;;;;;;37.75;24.75;;;;;;;;5013148;28;45769;-68
2022/12/03 07:40:58;;;;;;;;;41.25;29.25;;;;;;;;5006339;28;46237;-69
2022/12/03 07:43:23;;;;;;;;;24.75;21.50;;;;;;;;4994467;28;45458;-67
2022/12/03 07:45:48;;;;;;;;;38.50;33.75;;;;;;;;5010405;28;45486;-69
2022/12/03 07:48:14;;;;;;;;;38.25;34.50;;;;;;;;5007482;28;45453;-70
2022/12/03 07:50:39;;;;;;;;;46.50;31.50;;;;;;;;5011560;28;46224;-69
2022/12/03 07:53:04;;;;;;;;;35.75;26.25;;;;;;;;5010792;28;45460;-69
2022/12/03 07:55:29;;;;;;;;;33.50;28.25;;;;;;;;5011003;28;45403;-69
2022/12/03 07:57:55;;;;;;;;;34.50;30.00;;;;;;;;4997002;28;46020;-71
2022/12/03 08:00:20;;;;;;;;;34.25;30.00;;;;;;;;4999928;28;46854;-70
2022/12/03 08:02:45;;;;;;;;;38.50;31.00;;;;;;;;5015634;28;45822;-70
2022/12/03 08:05:11;;;;;;;;;44.50;36.00;;;;;;;;5010885;28;45531;-69
2022/12/03 08:07:36;;;;;;;;;30.50;27.00;;;;;;;;4996469;28;45505;-69
2022/12/03 08:10:02;;;;;;;;;41.50;30.50;;;;;;;;4984094;28;45407;-70
2022/12/03 08:12:40;;;;;;;;;33.25;26.25;;;;;;;;5011463;28;45794;-72
2022/12/03 08:15:15;;;;;;;;;36.00;30.25;;;;;;;;4996628;28;45707;-71
2022/12/03 08:17:41;;;;;;;;;33.25;27.25;;;;;;;;5012380;28;45512;-70
2022/12/03 08:20:16;;;;;;;;;41.75;35.25;;;;;;;;5024099;28;47037;-68
2022/12/03 08:22:42;;;;;;;;;32.50;30.25;;;;;;;;4991896;28;45838;-69
2022/12/03 08:25:18;;;;;;;;;31.25;27.50;;;;;;;;4989568;28;45356;-67
2022/12/03 08:27:43;;;;;;;;;40.50;30.00;;;;;;;;5011955;28;45692;-69
2022/12/03 08:30:10;;;;;;;;;39.00;29.25;;;;;;;;5013204;28;45425;-70
2022/12/03 08:32:35;;;;;;;;;26.00;20.75;;;;;;;;5008522;28;45732;-70
2022/12/03 08:35:01;;;;;;;;;47.75;33.50;;;;;;;;4991940;28;45798;-70
2022/12/03 08:37:26;;;;;;;;;42.50;35.00;;;;;;;;5007053;28;45545;-69
2022/12/03 08:39:53;;;;;;;;;22.75;21.50;;;;;;;;5018500;28;46421;-71
2022/12/03 08:42:40;;;;;;;;;36.25;29.50;;;;;;;;5016957;28;45817;-72
2022/12/03 08:45:16;;;;;;;;;37.00;27.00;;;;;;;;5014862;28;45737;-71
2022/12/03 08:47:41;;;;;;;;;33.50;28.75;;;;;;;;4995193;28;45708;-71
2022/12/03 08:50:25;;;;;;;;;40.25;27.50;;;;;;;;5011758;28;46463;-71
2022/12/03 08:52:51;;;;;;;;;36.00;29.75;;;;;;;;4978110;28;45768;-70
2022/12/03 08:55:36;;;;;;;;;23.33;19.33;;;;;;;;5009192;28;45521;-73
2022/12/03 08:58:20;;;;;;;;;26.25;20.25;;;;;;;;4992619;28;45751;-70
2022/12/03 09:00:45;;;;;;;;;23.25;18.00;;;;;;;;5005991;28;46332;-69
2022/12/03 09:03:15;;;;;;;;;35.00;24.75;;;;;;;;5002954;28;46643;-71
2022/12/03 09:05:40;;;;;;;;;23.00;22.00;;;;;;;;5001711;28;45987;-72
2022/12/03 09:08:05;;;;;;;;;23.25;19.25;;;;;;;;5011486;28;45801;-69
2022/12/03 09:10:31;;;;;;;;;39.25;27.75;;;;;;;;4990880;28;47954;-70
2022/12/03 09:12:56;;;;;;;;;31.75;25.50;;;;;;;;4991734;28;45433;-71
2022/12/03 09:15:21;;;;;;;;;29.67;23.00;;;;;;;;4994536;28;45433;-73
2022/12/03 09:17:47;;;;;;;;;33.75;29.75;;;;;;;;5010712;28;46073;-67
2022/12/03 09:20:13;;;;;;;;;28.00;23.33;;;;;;;;4981451;28;47941;-66
2022/12/03 09:22:38;;;;;;;;;22.00;17.67;;;;;;;;4995892;28;45445;-67
2022/12/03 09:25:03;;;;;;;;;31.00;25.25;;;;;;;;4994451;28;45375;-69
2022/12/03 09:27:29;;;;;;;;;25.00;22.25;;;;;;;;5012975;28;45461;-72
2022/12/03 09:29:54;;;;;;;;;34.33;26.00;;;;;;;;5005583;28;45309;-68
2022/12/03 09:32:19;;;;;;;;;29.33;24.67;;;;;;;;5013287;28;45622;-71
2022/12/03 09:34:46;;;;;;;;;28.00;22.67;;;;;;;;5012750;28;45279;-69
2022/12/03 09:37:11;;;;;;;;;24.25;19.75;;;;;;;;5005889;28;45542;-70
2022/12/03 09:39:36;;;;;;;;;26.33;20.00;;;;;;;;5008425;28;47363;-66
2022/12/03 09:42:02;;;;;;;;;25.67;23.00;;;;;;;;5005601;28;45835;-66
2022/12/03 09:44:28;;;;;;;;;33.33;21.33;;;;;;;;5012910;28;45654;-70
2022/12/03 09:46:53;;;;;;;;;25.75;23.50;;;;;;;;5003646;28;45756;-72
2022/12/03 09:49:19;;;;;;;;;21.67;18.33;;;;;;;;5010713;28;47564;-67
2022/12/03 09:51:44;;;;;;;;;18.00;16.00;;;;;;;;5010146;28;45495;-68
2022/12/03 09:54:17;;;;;;;;;24.25;21.25;;;;;;;;5011180;28;45727;-69
2022/12/03 09:56:42;;;;;;;;;26.67;22.33;;;;;;;;5005975;28;45921;-70
2022/12/03 09:59:15;;;;;;;;;27.00;23.33;;;;;;;;5002062;28;47080;-68
2022/12/03 10:01:40;;;;;;;;;22.00;18.33;;;;;;;;5005368;28;45765;-65
2022/12/03 10:04:06;;;;;;;;;24.33;22.33;;;;;;;;5008797;28;45640;-68
2022/12/03 10:06:31;;;;;;;;;25.25;20.50;;;;;;;;4991178;28;46025;-67
2022/12/03 10:08:58;;;;;;;;;22.67;18.00;;;;;;;;4988807;28;46874;-68
2022/12/03 10:11:24;;;;;;;;;18.67;15.67;;;;;;;;5006863;28;45825;-67
2022/12/03 10:13:51;;;;;;;;;23.00;18.00;;;;;;;;4988915;28;45743;-68
2022/12/03 10:16:17;;;;;;;;;25.33;20.33;;;;;;;;5005561;28;45625;-67
2022/12/03 10:18:44;;;;;;;;;23.00;22.33;;;;;;;;4988493;28;45527;-72
2022/12/03 10:21:22;;;;;;;;;21.67;16.00;;;;;;;;4992709;28;45398;-71
2022/12/03 10:23:49;;;;;;;;;17.00;16.33;;;;;;;;5005442;28;45925;-68
2022/12/03 10:26:15;;;;;;;;;29.67;25.33;;;;;;;;4997498;28;46719;-68
2022/12/03 10:28:42;;;;;;;;;24.33;19.33;;;;;;;;5002390;28;45759;-71
2022/12/03 10:31:09;;;;;;;;;24.67;23.00;;;;;;;;5004080;28;45977;-72
2022/12/03 10:33:38;;;;;;;;;20.33;15.67;;;;;;;;5001393;28;45808;-69
2022/12/03 10:36:13;;;;;;;;;25.67;19.00;;;;;;;;5002959;28;45419;-69
2022/12/03 10:38:38;;;;;;;;;22.00;21.00;;;;;;;;5007395;28;45530;-69
2022/12/03 10:41:18;;;;;;;;;20.67;20.33;;;;;;;;5001738;28;45746;-69
2022/12/03 10:43:44;;;;;;;;;32.33;23.67;;;;;;;;5004427;28;45354;-68
2022/12/03 10:46:11;;;;;;;;;21.00;18.33;;;;;;;;5006493;28;45438;-73
2022/12/03 10:48:36;;;;;;;;;30.33;24.33;;;;;;;;5007278;28;46248;-70
2022/12/03 10:51:02;;;;;;;;;22.67;20.00;;;;;;;;5010599;28;45778;-69
2022/12/03 10:53:29;;;;;;;;;25.67;21.00;;;;;;;;5006749;28;45907;-70
2022/12/03 10:55:58;;;;;;;;;19.67;19.00;;;;;;;;5004972;28;46455;-70
2022/12/03 10:58:28;;;;;;;;;19.33;19.00;;;;;;;;5010414;28;46450;-70
2022/12/03 11:00:55;;;;;;;;;15.67;11.00;;;;;;;;5002611;28;45556;-70
2022/12/03 11:03:25;;;;;;;;;31.67;22.00;;;;;;;;5006517;28;45787;-72
2022/12/03 11:05:50;;;;;;;;;28.33;22.67;;;;;;;;4995588;28;46968;-70
2022/12/03 11:08:23;;;;;;;;;22.00;16.67;;;;;;;;4983082;28;47223;-71
2022/12/03 11:10:56;;;;;;;;;19.33;19.33;;;;;;;;5008267;28;45772;-70
2022/12/03 11:13:28;;;;;;;;;20.67;17.33;;;;;;;;4993260;28;45553;-70
2022/12/03 11:15:53;;;;;;;;;30.67;23.67;;;;;;;;5015426;28;46033;-71
2022/12/03 11:18:37;;;;;;;;;22.67;21.00;;;;;;;;5007491;28;46188;-70
2022/12/03 11:21:05;;;;;;;;;23.00;17.00;;;;;;;;5010067;28;45858;-72
2022/12/03 11:23:42;;;;;;;;;18.33;17.67;;;;;;;;5006111;28;45592;-71
2022/12/03 11:26:08;;;;;;;;;22.33;22.33;;;;;;;;5009783;28;45488;-70
2022/12/03 11:28:34;;;;;;;;;26.67;23.00;;;;;;;;4998428;28;46288;-70
2022/12/03 11:31:01;;;;;;;;;18.00;17.00;;;;;;;;5002835;28;45680;-70
2022/12/03 11:33:30;;;;;;;;;22.00;19.33;;;;;;;;4989385;28;46004;-71
2022/12/03 11:36:01;;;;;;;;;21.00;17.33;;;;;;;;5007770;28;45556;-73
2022/12/03 11:38:36;;;;;;;;;14.33;11.33;;;;;;;;5000478;28;46464;-73
2022/12/03 11:41:20;;;;;;;;;20.33;18.00;;;;;;;;5006093;28;45452;-70
2022/12/03 11:43:51;;;;;;;;;28.00;20.33;;;;;;;;5011323;28;45389;-71
2022/12/03 11:46:35;;;;;;;;;20.00;16.67;;;;;;;;5004147;28;45811;-73
2022/12/03 11:49:00;;;;;;;;;21.67;18.00;;;;;;;;4998938;28;45649;-70
2022/12/03 11:51:27;;;;;;;;;18.33;18.33;;;;;;;;4998361;28;45505;-70
2022/12/03 11:53:55;;;;;;;;;30.33;24.00;;;;;;;;4993394;28;45923;-71
2022/12/03 11:56:29;;;;;;;;;20.67;18.00;;;;;;;;4999683;28;45634;-71
2022/12/03 11:58:59;;;;;;;;;17.00;13.33;;;;;;;;4997050;28;45777;-72
2022/12/03 12:01:35;;;;;;;;;8.67;8.67;;;;;;;;4989894;28;45880;-71
2022/12/03 12:04:00;;;;;;;;;30.67;23.00;;;;;;;;4991344;28;45492;-71
2022/12/03 12:06:25;;;;;;;;;18.00;15.00;;;;;;;;5003170;28;45560;-71
2022/12/03 12:08:51;;;;;;;;;27.00;21.00;;;;;;;;4999757;28;45623;-71
2022/12/03 12:11:17;;;;;;;;;23.00;18.00;;;;;;;;5003646;28;45727;-71
2022/12/03 12:13:43;;;;;;;;;20.67;17.00;;;;;;;;5008149;28;45653;-72
2022/12/03 12:16:08;;;;;;;;;24.33;22.67;;;;;;;;5006938;28;45748;-71
2022/12/03 12:18:34;;;;;;;;;25.67;24.33;;;;;;;;5005959;28;46751;-71
2022/12/03 12:21:18;;;;;;;;;31.67;22.67;;;;;;;;5006477;28;45654;-71
2022/12/03 12:23:43;;;;;;;;;15.67;15.67;;;;;;;;4997210;28;45948;-72
2022/12/03 12:26:08;;;;;;;;;20.67;18.33;;;;;;;;5003850;28;45676;-74
2022/12/03 12:28:34;;;;;;;;;23.67;22.67;;;;;;;;5009450;28;45872;-72
2022/12/03 12:30:59;;;;;;;;;24.00;20.33;;;;;;;;5012539;28;45667;-72
2022/12/03 12:33:25;;;;;;;;;26.00;25.00;;;;;;;;5002365;28;45709;-72
2022/12/03 12:35:50;;;;;;;;;12.67;8.67;;;;;;;;5004130;28;45639;-72
2022/12/03 12:38:17;;;;;;;;;21.67;18.00;;;;;;;;5002396;28;46356;-73
2022/12/03 12:40:44;;;;;;;;;22.67;19.33;;;;;;;;4987410;28;45855;-73
2022/12/03 12:43:09;;;;;;;;;25.67;21.00;;;;;;;;5001408;28;45835;-73
2022/12/03 12:45:35;;;;;;;;;19.00;16.67;;;;;;;;4997611;28;45828;-73
2022/12/03 12:48:13;;;;;;;;;21.33;17.00;;;;;;;;5001028;28;46229;-72
2022/12/03 12:50:39;;;;;;;;;19.33;16.67;;;;;;;;5001348;28;45789;-73
2022/12/03 12:53:15;;;;;;;;;20.33;17.33;;;;;;;;5009825;28;45458;-73
2022/12/03 12:55:41;;;;;;;;;22.67;18.67;;;;;;;;4990858;28;45423;-76
2022/12/03 12:58:13;;;;;;;;;26.67;23.00;;;;;;;;4993973;28;47418;-73
2022/12/03 13:00:38;;;;;;;;;18.00;16.00;;;;;;;;5008558;28;45826;-71
2022/12/03 13:03:04;;;;;;;;;22.67;19.67;;;;;;;;5025370;28;45338;-71
2022/12/03 13:05:40;;;;;;;;;26.33;21.33;;;;;;;;5005752;28;46951;-71
2022/12/03 13:08:28;;;;;;;;;20.33;17.33;;;;;;;;5019324;28;46205;-71
2022/12/03 13:10:54;;;;;;;;;29.33;22.00;;;;;;;;4992858;28;45900;-69
2022/12/03 13:13:24;;;;;;;;;25.00;22.33;;;;;;;;4991914;28;45619;-72
2022/12/03 13:15:51;;;;;;;;;19.33;17.33;;;;;;;;5107706;22;45426;-71
2022/12/03 13:18:25;;;;;;;;;19.67;18.33;;;;;;;;4975347;28;46446;-74
2022/12/03 13:20:51;;;;;;;;;27.33;21.33;;;;;;;;4985282;28;45669;-72
2022/12/03 13:23:24;;;;;;;;;19.33;18.33;;;;;;;;4994704;28;45891;-70
2022/12/03 13:25:51;;;;;;;;;20.33;18.33;;;;;;;;4991068;28;45877;-72
2022/12/03 13:28:17;;;;;;;;;19.67;19.33;;;;;;;;4990903;28;45637;-70
2022/12/03 13:30:42;;;;;;;;;20.00;19.33;;;;;;;;4991818;28;45682;-71
2022/12/03 13:33:13;;;;;;;;;25.33;21.33;;;;;;;;4984370;28;45446;-72
2022/12/03 13:35:40;;;;;;;;;26.00;21.00;;;;;;;;4982945;28;45400;-72
2022/12/03 13:38:12;;;;;;;;;16.67;16.33;;;;;;;;4990460;28;45408;-71
2022/12/03 13:40:37;;;;;;;;;18.33;11.67;;;;;;;;5005004;28;45818;-71
2022/12/03 13:43:03;;;;;;;;;20.33;17.67;;;;;;;;5000631;28;45612;-73
2022/12/03 13:45:31;;;;;;;;;26.33;22.33;;;;;;;;4993121;28;45599;-72
2022/12/03 13:47:59;;;;;;;;;23.00;21.00;;;;;;;;4995645;28;46412;-71
2022/12/03 13:50:33;;;;;;;;;25.00;18.33;;;;;;;;4990639;28;45552;-72
2022/12/03 13:53:04;;;;;;;;;14.67;14.67;;;;;;;;4988428;28;45790;-71
2022/12/03 13:55:30;;;;;;;;;23.00;20.33;;;;;;;;4989052;28;45850;-72
2022/12/03 13:57:55;;;;;;;;;27.33;16.67;;;;;;;;4992827;28;46403;-71
2022/12/03 14:00:21;;;;;;;;;25.33;21.33;;;;;;;;4988623;28;45491;-71
2022/12/03 14:02:46;;;;;;;;;24.00;17.67;;;;;;;;4984541;28;45881;-71
2022/12/03 14:05:12;;;;;;;;;22.67;18.00;;;;;;;;4981908;28;45838;-72
2022/12/03 14:07:37;;;;;;;;;23.00;21.33;;;;;;;;4988501;28;45926;-71
2022/12/03 14:10:03;;;;;;;;;24.50;20.25;;;;;;;;4973729;28;45738;-72
2022/12/03 14:12:32;;;;;;;;;26.33;22.00;;;;;;;;4973581;28;45475;-71
2022/12/03 14:14:57;;;;;;;;;25.00;20.33;;;;;;;;4972439;28;46260;-72
2022/12/03 14:17:23;;;;;;;;;20.67;17.67;;;;;;;;4998226;28;46033;-72
2022/12/03 14:19:48;;;;;;;;;23.67;19.33;;;;;;;;5010280;28;45393;-70
2022/12/03 14:22:14;;;;;;;;;9.67;9.00;;;;;;;;5010538;28;45692;-71
2022/12/03 14:24:39;;;;;;;;;21.67;17.33;;;;;;;;4999791;28;45708;-71
2022/12/03 14:29:39;;;;;;;;;18.00;15.67;;;;;;;;5082035;22;45805;-71
2022/12/03 14:32:05;;;;;;;;;18.00;17.00;;;;;;;;5045700;28;45709;-70
2022/12/03 14:34:30;;;;;;;;;19.67;17.33;;;;;;;;5031848;28;45781;-70
2022/12/03 14:36:55;;;;;;;;;22.00;19.00;;;;;;;;5042640;28;46125;-71